createdAt,value
2023-01-21T00:03:29.078Z,-1.40
2023-01-21T00:08:36.019Z,-1.50
2023-01-21T00:13:44.305Z,-1.50
2023-01-21T00:18:51.151Z,-1.60
2023-01-21T00:23:58.187Z,-1.70
2023-01-21T00:29:06.418Z,-1.60
2023-01-21T00:34:13.677Z,-1.80
2023-01-21T00:39:20.743Z,-1.80
2023-01-21T00:44:27.542Z,-1.80
2023-01-21T00:49:34.697Z,-1.80
2023-01-21T00:54:41.982Z,-1.80
2023-01-21T00:59:48.911Z,-1.90
2023-01-21T01:04:56.046Z,-1.90
2023-01-21T01:10:03.084Z,-1.80
2023-01-21T01:15:12.380Z,-1.70
2023-01-21T01:20:19.470Z,-1.80
2023-01-21T01:25:26.135Z,-1.90
2023-01-21T01:30:33.954Z,-1.80
2023-01-21T01:35:42.376Z,-1.70
2023-01-21T01:40:52.881Z,-1.40
2023-01-21T01:46:00.102Z,-1.50
2023-01-21T01:51:08.825Z,-1.50
2023-01-21T01:56:17.108Z,-1.60
2023-01-21T02:01:24.301Z,-1.60
2023-01-21T02:06:31.145Z,-1.60
2023-01-21T02:11:39.983Z,-1.70
2023-01-21T02:17:00.657Z,-1.60
2023-01-21T02:22:31.222Z,-1.70
2023-01-21T02:28:14.363Z,-1.70
2023-01-21T02:33:28.300Z,-1.90
2023-01-21T02:38:54.173Z,-2.00
2023-01-21T02:44:20.189Z,-1.90
2023-01-21T02:49:42.863Z,-1.80
2023-01-21T02:54:56.024Z,-1.80
2023-01-21T03:00:06.316Z,-1.70
2023-01-21T03:05:47.360Z,-1.70
2023-01-21T03:11:07.239Z,-2.00
2023-01-21T03:16:34.699Z,-1.90
2023-01-21T03:21:41.978Z,-1.80
2023-01-21T03:26:52.042Z,-1.90
2023-01-21T03:32:04.277Z,-1.90
2023-01-21T03:37:21.794Z,-1.80
2023-01-21T03:42:29.491Z,-2.10
2023-01-21T03:47:39.687Z,-2.00
2023-01-21T03:52:47.598Z,-2.10
2023-01-21T03:57:54.314Z,-1.80
2023-01-21T04:03:01.143Z,-1.80
2023-01-21T04:08:07.984Z,-1.70
2023-01-21T04:13:14.988Z,-1.90
2023-01-21T04:18:22.161Z,-1.50
2023-01-21T04:23:28.971Z,-1.60
2023-01-21T04:28:36.167Z,-1.60
2023-01-21T04:33:43.693Z,-1.80
2023-01-21T04:38:52.011Z,-1.90
2023-01-21T04:43:58.895Z,-1.70
2023-01-21T04:49:05.798Z,-1.80
2023-01-21T04:54:13.128Z,-1.40
2023-01-21T04:59:19.898Z,-1.50
2023-01-21T05:04:27.015Z,-1.50
2023-01-21T05:09:35.205Z,-1.70
2023-01-21T05:14:42.106Z,-1.70
2023-01-21T05:19:49.102Z,-1.60
2023-01-21T05:24:57.423Z,-1.70
2023-01-21T05:30:05.330Z,-1.70
2023-01-21T05:35:14.292Z,-1.70
2023-01-21T05:40:21.161Z,-1.70
2023-01-21T05:45:28.132Z,-1.70
2023-01-21T05:50:34.988Z,-1.70
2023-01-21T05:55:42.224Z,-1.70
2023-01-21T06:00:49.655Z,-1.90
2023-01-21T06:05:58.027Z,-1.70
2023-01-21T06:11:04.761Z,-1.50
2023-01-21T06:16:11.644Z,-1.70
2023-01-21T06:21:19.058Z,-1.80
2023-01-21T06:26:27.217Z,-1.70
2023-01-21T06:31:34.255Z,-1.50
2023-01-21T06:36:42.941Z,-1.80
2023-01-21T06:41:49.808Z,-1.80
2023-01-21T06:47:01.144Z,-1.70
2023-01-21T06:52:06.136Z,-1.50
2023-01-21T06:57:13.285Z,-1.60
2023-01-21T07:02:20.177Z,-1.80
2023-01-21T07:07:27.393Z,-1.70
2023-01-21T07:12:34.341Z,-1.70
2023-01-21T07:17:41.350Z,-1.40
2023-01-21T07:22:48.331Z,-1.40
2023-01-21T07:27:54.989Z,-1.40
2023-01-21T07:33:09.991Z,-1.20
2023-01-21T07:38:16.844Z,-1.30
2023-01-21T07:43:23.775Z,-1.30
2023-01-21T07:48:30.540Z,-1.20
2023-01-21T07:53:37.221Z,-1.10
2023-01-21T07:58:44.056Z,-1.00
2023-01-21T08:03:50.867Z,-1.10
2023-01-21T08:08:57.679Z,-0.80
2023-01-21T08:14:04.570Z,-0.80
2023-01-21T08:19:13.909Z,-0.90
2023-01-21T08:24:20.760Z,-0.70
2023-01-21T08:29:28.045Z,-0.80
2023-01-21T08:34:37.718Z,-0.80
2023-01-21T08:39:45.049Z,-0.70
2023-01-21T08:44:51.924Z,-0.60
2023-01-21T08:49:58.921Z,-0.70
2023-01-21T08:55:06.365Z,-0.50
2023-01-21T09:00:14.634Z,-0.60
2023-01-21T09:05:21.931Z,-0.50
2023-01-21T09:10:46.466Z,-0.40
2023-01-21T09:15:53.253Z,-0.40
2023-01-21T09:21:05.161Z,-0.20
2023-01-21T09:26:24.709Z,-0.10
2023-01-21T09:31:32.936Z,0.10
2023-01-21T09:36:40.532Z,0.00
2023-01-21T09:41:58.604Z,0.20
2023-01-21T09:47:33.169Z,0.30
2023-01-21T09:52:45.705Z,0.40
2023-01-21T09:58:11.315Z,0.40
2023-01-21T10:03:27.892Z,0.40
2023-01-21T10:09:01.338Z,0.60
2023-01-21T10:14:45.174Z,0.50
2023-01-21T10:20:02.893Z,0.20
2023-01-21T10:25:32.123Z,0.20
2023-01-21T10:30:47.419Z,0.30
2023-01-21T10:36:22.813Z,0.30
2023-01-21T10:41:50.024Z,0.50
2023-01-21T10:47:20.329Z,0.90
2023-01-21T10:52:47.872Z,0.80
2023-01-21T10:58:04.045Z,0.90
2023-01-21T11:03:18.035Z,1.20
2023-01-21T11:08:27.926Z,1.30
2023-01-21T11:13:35.029Z,1.20
2023-01-21T11:18:43.890Z,1.30
2023-01-21T11:24:01.068Z,1.20
2023-01-21T11:29:19.370Z,1.30
2023-01-21T11:34:26.364Z,1.20
2023-01-21T11:39:36.718Z,1.20
2023-01-21T11:44:56.799Z,1.20
2023-01-21T11:50:17.238Z,1.30
2023-01-21T11:55:26.708Z,1.40
2023-01-21T12:00:37.135Z,1.50
2023-01-21T12:05:45.660Z,1.50
2023-01-21T12:10:56.670Z,1.50
2023-01-21T12:16:19.827Z,1.60
2023-01-21T12:21:54.614Z,1.50
2023-01-21T12:27:17.186Z,1.60
2023-01-21T12:32:46.146Z,1.80
2023-01-21T12:37:57.490Z,1.50
2023-01-21T12:43:07.609Z,1.50
2023-01-21T12:48:22.326Z,1.50
2023-01-21T12:53:48.105Z,1.80
2023-01-21T12:59:19.839Z,1.90
2023-01-21T13:04:39.727Z,1.80
2023-01-21T13:09:56.829Z,1.60
2023-01-21T13:15:16.879Z,1.70
2023-01-21T13:20:25.474Z,1.60
2023-01-21T13:25:36.737Z,1.70
2023-01-21T13:30:53.922Z,1.50
2023-01-21T13:36:08.278Z,1.50
2023-01-21T13:41:45.049Z,1.40
2023-01-21T13:47:12.427Z,1.40
2023-01-21T13:52:54.810Z,1.30
2023-01-21T13:58:23.750Z,1.20
2023-01-21T14:03:49.590Z,1.20
2023-01-21T14:09:12.763Z,1.00
2023-01-21T14:15:00.406Z,1.10
2023-01-21T14:20:35.337Z,1.00
2023-01-21T14:26:11.337Z,1.00
2023-01-21T14:31:25.302Z,1.00
2023-01-21T14:36:54.579Z,0.90
2023-01-21T14:42:16.364Z,0.90
2023-01-21T14:47:42.209Z,0.90
2023-01-21T14:52:49.982Z,0.80
2023-01-21T14:57:58.576Z,0.70
2023-01-21T15:03:18.822Z,0.50
2023-01-21T15:08:46.130Z,0.60
2023-01-21T15:14:18.277Z,0.60
2023-01-21T15:19:29.320Z,0.50
2023-01-21T15:24:44.853Z,0.30
2023-01-21T15:30:08.453Z,0.20
2023-01-21T15:35:40.568Z,0.10
2023-01-21T15:40:52.022Z,0.00
2023-01-21T15:46:23.957Z,0.00
2023-01-21T15:51:51.449Z,-0.10
2023-01-21T15:57:26.128Z,-0.10
2023-01-21T16:02:34.413Z,-0.20
2023-01-21T16:08:01.303Z,-0.20
2023-01-21T16:13:21.343Z,-0.20
2023-01-21T16:18:41.203Z,-0.30
2023-01-21T16:23:48.027Z,-0.30
2023-01-21T16:28:54.993Z,-0.20
2023-01-21T16:34:03.391Z,-0.40
2023-01-21T16:39:12.096Z,-0.30
2023-01-21T16:44:19.402Z,-0.30
2023-01-21T16:49:26.220Z,-0.20
2023-01-21T16:54:34.676Z,-0.30
2023-01-21T16:59:45.043Z,-0.40
2023-01-21T17:04:53.341Z,-0.20
2023-01-21T17:10:25.775Z,-0.30
2023-01-21T17:15:45.727Z,-0.30
2023-01-21T17:21:14.982Z,-0.40
2023-01-21T17:26:31.626Z,-0.50
2023-01-21T17:31:43.889Z,-0.60
2023-01-21T17:36:53.282Z,-0.60
2023-01-21T17:42:04.771Z,-0.60
2023-01-21T17:47:32.026Z,-0.60
2023-01-21T17:52:38.936Z,-0.50
2023-01-21T17:57:47.296Z,-0.50
2023-01-21T18:02:54.078Z,-0.50
2023-01-21T18:08:00.812Z,-0.40
2023-01-21T18:13:07.827Z,-0.30
2023-01-21T18:18:24.604Z,-0.40
2023-01-21T18:23:32.355Z,-0.50
2023-01-21T18:28:39.108Z,-0.50
2023-01-21T18:33:46.064Z,-0.50
2023-01-21T18:38:55.562Z,-0.60
2023-01-21T18:44:02.274Z,-0.50
2023-01-21T18:49:18.492Z,-0.40
2023-01-21T18:54:25.192Z,-0.40
2023-01-21T18:59:32.008Z,-0.50
2023-01-21T19:04:38.839Z,-0.50
2023-01-21T19:09:50.055Z,-0.30
2023-01-21T19:14:57.149Z,-0.50
2023-01-21T19:20:09.563Z,-0.40
2023-01-21T19:25:19.211Z,-0.60
2023-01-21T19:30:29.940Z,-0.50
2023-01-21T19:35:40.400Z,-0.50
2023-01-21T19:40:47.599Z,-0.50
2023-01-21T19:45:56.172Z,-0.50
2023-01-21T19:51:03.482Z,-0.60
2023-01-21T19:56:13.720Z,-0.60
2023-01-21T20:01:20.624Z,-0.60
2023-01-21T20:06:31.000Z,-0.50
2023-01-21T20:11:37.850Z,-0.60
2023-01-21T20:16:52.980Z,-0.60
2023-01-21T20:22:02.442Z,-0.60
2023-01-21T20:27:11.516Z,-0.60
2023-01-21T20:32:18.285Z,-0.70
2023-01-21T20:37:25.604Z,-0.70
2023-01-21T20:42:34.367Z,-0.70
2023-01-21T20:47:49.581Z,-0.70
2023-01-21T20:52:52.268Z,-0.80
2023-01-21T20:57:59.485Z,-0.70
2023-01-21T21:03:06.902Z,-0.70
2023-01-21T21:08:22.812Z,-0.70
2023-01-21T21:13:30.994Z,-0.60
2023-01-21T21:18:37.659Z,-0.80
2023-01-21T21:23:47.873Z,-0.70
2023-01-21T21:28:58.013Z,-0.70
2023-01-21T21:34:04.861Z,-0.70
2023-01-21T21:39:11.565Z,-0.70
2023-01-21T21:44:18.412Z,-0.80
2023-01-21T21:49:25.172Z,-0.90
2023-01-21T21:54:34.516Z,-1.00
2023-01-21T21:59:42.714Z,-0.90
2023-01-21T22:04:49.527Z,-1.00
2023-01-21T22:09:56.378Z,-0.90
2023-01-21T22:15:03.302Z,-1.00
2023-01-21T22:20:12.281Z,-1.00
2023-01-21T22:25:19.630Z,-0.90
2023-01-21T22:30:28.150Z,-1.20
2023-01-21T22:35:36.008Z,-1.30
2023-01-21T22:40:42.692Z,-1.30
2023-01-21T22:45:52.183Z,-1.40
2023-01-21T22:51:01.759Z,-1.50
2023-01-21T22:56:09.236Z,-1.60
2023-01-21T23:01:29.557Z,-1.80
2023-01-21T23:06:37.838Z,-1.60
2023-01-21T23:11:45.624Z,-1.80
2023-01-21T23:16:54.638Z,-1.90
2023-01-21T23:22:01.684Z,-2.00
2023-01-21T23:27:08.493Z,-2.00
2023-01-21T23:32:15.752Z,-2.00
2023-01-21T23:37:22.575Z,-2.00
2023-01-21T23:42:29.371Z,-2.00
2023-01-21T23:47:36.352Z,-2.00
2023-01-21T23:52:44.208Z,-2.00
2023-01-21T23:57:51.030Z,-2.00
